createdAt,value
2017-03-04T00:00:15.390Z,992.27
2017-03-04T00:00:58.152Z,992.29
2017-03-04T00:01:41.064Z,992.23
2017-03-04T00:05:36.689Z,992.27
2017-03-04T00:07:58.616Z,992.34
2017-03-04T00:08:40.694Z,992.28
2017-03-04T00:09:23.394Z,992.26
2017-03-04T00:10:05.743Z,992.28
2017-03-04T00:12:01.061Z,992.29
2017-03-04T00:12:43.110Z,992.25
2017-03-04T00:13:25.491Z,992.29
2017-03-04T00:14:08.235Z,992.28
2017-03-04T00:14:50.924Z,992.24
2017-03-04T00:15:34.047Z,992.24
2017-03-04T00:16:16.548Z,992.23
2017-03-04T00:16:59.355Z,992.21
2017-03-04T00:17:40.287Z,992.24
2017-03-04T00:18:21.055Z,992.21
2017-03-04T00:19:03.757Z,992.23
2017-03-04T00:19:46.416Z,992.23
2017-03-04T00:20:29.488Z,992.19
2017-03-04T00:21:12.389Z,992.2
2017-03-04T00:21:54.779Z,992.19
2017-03-04T00:22:36.654Z,992.22
2017-03-04T00:24:52.812Z,992.18
2017-03-04T00:25:35.721Z,992.21
2017-03-04T00:26:18.396Z,992.18
2017-03-04T00:27:00.873Z,992.18
2017-03-04T00:27:43.249Z,992.19
2017-03-04T00:29:38.760Z,992.09
2017-03-04T00:30:21.174Z,992.08
2017-03-04T00:31:03.808Z,992.11
2017-03-04T00:31:46.316Z,992.11
2017-03-04T00:32:29.107Z,992.09
2017-03-04T00:33:11.797Z,992.12
2017-03-04T00:33:54.486Z,992.11
2017-03-04T00:34:37.117Z,992.11
2017-03-04T00:35:19.443Z,992.1
2017-03-04T00:37:51.496Z,992.09
2017-03-04T00:40:23.729Z,992.08
2017-03-04T00:41:06.419Z,992.07
2017-03-04T00:41:48.781Z,992.06
2017-03-04T00:42:31.312Z,992.04
2017-03-04T00:43:14.020Z,992.02
2017-03-04T00:43:56.658Z,992.02
2017-03-04T00:44:39.213Z,992.04
2017-03-04T00:45:21.947Z,992.07
2017-03-04T00:46:04.618Z,992.05
2017-03-04T00:46:47.250Z,992.05
2017-03-04T00:49:03.947Z,992.03
2017-03-04T00:49:46.558Z,992.03
2017-03-04T00:50:29.049Z,992.03
2017-03-04T00:51:11.753Z,992.01
2017-03-04T00:53:12.783Z,992.01
2017-03-04T00:53:55.383Z,991.96
2017-03-04T00:54:37.552Z,991.96
2017-03-04T00:55:20.060Z,991.99
2017-03-04T00:56:02.869Z,991.94
2017-03-04T00:56:45.538Z,991.95
2017-03-04T00:57:27.935Z,991.98
2017-03-04T00:59:44.065Z,991.91
2017-03-04T01:00:26.458Z,991.95
2017-03-04T01:01:08.824Z,991.92
2017-03-04T01:03:03.889Z,991.89
2017-03-04T01:03:46.077Z,991.87
2017-03-04T01:04:28.806Z,991.83
2017-03-04T01:06:29.658Z,991.84
2017-03-04T01:07:11.977Z,991.86
2017-03-04T01:07:54.502Z,991.82
2017-03-04T01:08:37.183Z,991.81
2017-03-04T01:09:19.666Z,991.82
2017-03-04T01:10:01.895Z,991.78
2017-03-04T01:10:44.272Z,991.77
2017-03-04T01:13:06.099Z,991.75
2017-03-04T01:13:48.842Z,991.74
2017-03-04T01:14:31.052Z,991.74
2017-03-04T01:16:47.671Z,991.72
2017-03-04T01:17:29.734Z,991.73
2017-03-04T01:18:11.843Z,991.69
2017-03-04T01:18:54.629Z,991.69
2017-03-04T01:19:37.086Z,991.7
2017-03-04T01:22:09.313Z,991.62
2017-03-04T01:24:04.452Z,991.56
2017-03-04T01:24:46.980Z,991.59
2017-03-04T01:25:29.314Z,991.53
2017-03-04T01:26:11.856Z,991.5
2017-03-04T01:28:06.919Z,991.5
2017-03-04T01:28:48.985Z,991.47
2017-03-04T01:30:44.377Z,991.42
2017-03-04T01:31:27.008Z,991.41
2017-03-04T01:32:09.604Z,991.39
2017-03-04T01:35:43.998Z,991.37
2017-03-04T01:36:26.618Z,991.31
2017-03-04T01:37:08.811Z,991.31
2017-03-04T01:39:25.179Z,991.22
2017-03-04T01:40:07.967Z,991.2
2017-03-04T01:40:50.855Z,991.19
2017-03-04T01:42:46.379Z,991.15
2017-03-04T01:45:19.081Z,991.09
2017-03-04T01:46:01.429Z,991.06
2017-03-04T01:46:44.070Z,991.12
2017-03-04T01:47:26.947Z,991.05
2017-03-04T01:48:09.264Z,991.07
2017-03-04T01:50:10.004Z,991.01
2017-03-04T01:52:32.213Z,990.98
2017-03-04T01:55:04.626Z,990.89
2017-03-04T01:55:47.605Z,990.89
2017-03-04T01:56:30.131Z,990.88
2017-03-04T01:57:13.041Z,990.89
2017-03-04T01:57:55.648Z,990.88
2017-03-04T01:58:38.483Z,990.9
2017-03-04T01:59:21.285Z,990.89
2017-03-04T02:00:03.961Z,990.82
2017-03-04T02:02:34.851Z,990.83
2017-03-04T02:03:15.399Z,990.86
2017-03-04T02:03:55.941Z,990.85
2017-03-04T02:04:36.490Z,990.86
2017-03-04T02:05:17.067Z,990.9
2017-03-04T02:05:57.614Z,990.85
2017-03-04T02:06:38.163Z,990.88
2017-03-04T02:07:18.708Z,990.89
2017-03-04T02:07:59.254Z,990.88
2017-03-04T02:08:39.804Z,990.91
2017-03-04T02:09:20.346Z,990.95
2017-03-04T02:10:00.892Z,990.93
2017-03-04T02:10:41.434Z,990.91
2017-03-04T02:11:21.966Z,990.97
2017-03-04T02:12:02.499Z,990.94
2017-03-04T02:12:43.041Z,990.97
2017-03-04T02:13:23.574Z,990.96
2017-03-04T02:14:04.124Z,990.97
2017-03-04T02:14:44.706Z,990.99
2017-03-04T02:15:25.208Z,990.96
2017-03-04T02:16:05.755Z,990.96
2017-03-04T02:16:46.301Z,990.95
2017-03-04T02:17:26.846Z,990.95
2017-03-04T02:18:07.384Z,990.93
2017-03-04T02:18:47.939Z,990.92
2017-03-04T02:19:28.473Z,990.89
2017-03-04T02:20:09.001Z,990.88
2017-03-04T02:20:49.562Z,990.89
2017-03-04T02:21:30.099Z,990.87
2017-03-04T02:22:10.659Z,990.84
2017-03-04T02:22:51.216Z,990.86
2017-03-04T02:23:31.751Z,990.92
2017-03-04T02:24:12.289Z,990.86
2017-03-04T02:24:52.833Z,990.84
2017-03-04T02:25:33.382Z,990.86
2017-03-04T02:26:13.933Z,990.84
2017-03-04T02:26:54.481Z,990.82
2017-03-04T02:27:35.025Z,990.78
2017-03-04T02:28:15.570Z,990.77
2017-03-04T02:28:56.115Z,990.79
2017-03-04T02:29:36.666Z,990.8
2017-03-04T02:30:17.213Z,990.8
2017-03-04T02:30:57.770Z,990.82
2017-03-04T02:31:38.301Z,990.8
2017-03-04T02:32:18.838Z,990.81
2017-03-04T02:32:59.374Z,990.77
2017-03-04T02:33:39.913Z,990.73
2017-03-04T02:34:20.451Z,990.76
2017-03-04T02:35:00.998Z,990.77
2017-03-04T02:35:41.546Z,990.74
2017-03-04T02:36:22.087Z,990.74
2017-03-04T02:37:02.636Z,990.73
2017-03-04T02:37:43.178Z,990.73
2017-03-04T02:38:23.757Z,990.77
2017-03-04T02:39:04.336Z,990.73
2017-03-04T02:39:44.885Z,990.77
2017-03-04T02:40:25.430Z,990.78
2017-03-04T02:41:05.975Z,990.81
2017-03-04T02:41:46.506Z,990.77
2017-03-04T02:42:27.056Z,990.8
2017-03-04T02:43:07.614Z,990.79
2017-03-04T02:43:48.157Z,990.76
2017-03-04T02:44:28.708Z,990.76
2017-03-04T02:45:09.258Z,990.78
2017-03-04T02:45:49.807Z,990.73
2017-03-04T02:46:30.360Z,990.74
2017-03-04T02:47:10.913Z,990.73
2017-03-04T02:47:51.461Z,990.71
2017-03-04T02:48:32.009Z,990.71
2017-03-04T02:49:12.559Z,990.74
2017-03-04T02:49:53.113Z,990.72
2017-03-04T02:50:33.662Z,990.75
2017-03-04T02:51:14.213Z,990.72
2017-03-04T02:51:54.764Z,990.72
2017-03-04T02:52:35.312Z,990.68
2017-03-04T02:53:15.858Z,990.68
2017-03-04T02:53:56.404Z,990.65
2017-03-04T02:54:36.947Z,990.68
2017-03-04T02:55:17.492Z,990.7
2017-03-04T02:55:58.044Z,990.7
2017-03-04T02:56:38.584Z,990.68
2017-03-04T02:57:19.118Z,990.65
2017-03-04T02:57:59.658Z,990.66
2017-03-04T02:58:40.197Z,990.64
2017-03-04T02:59:20.752Z,990.64
2017-03-04T03:00:01.294Z,990.66
2017-03-04T03:00:41.830Z,990.64
2017-03-04T03:01:22.376Z,990.65
2017-03-04T03:02:02.928Z,990.62
2017-03-04T03:02:43.478Z,990.63
2017-03-04T03:03:24.031Z,990.6
2017-03-04T03:04:04.581Z,990.59
2017-03-04T03:04:45.127Z,990.57
2017-03-04T03:05:25.669Z,990.56
2017-03-04T03:06:06.209Z,990.56
2017-03-04T03:06:46.762Z,990.51
2017-03-04T03:07:27.368Z,990.52
2017-03-04T03:08:07.912Z,990.49
2017-03-04T03:08:48.459Z,990.5
2017-03-04T03:09:28.992Z,990.48
2017-03-04T03:10:09.539Z,990.43
2017-03-04T03:10:50.087Z,990.47
2017-03-04T03:11:30.631Z,990.48
2017-03-04T03:12:11.178Z,990.5
2017-03-04T03:12:51.729Z,990.49
2017-03-04T03:13:32.270Z,990.53
2017-03-04T03:14:12.817Z,990.54
2017-03-04T03:14:53.352Z,990.56
2017-03-04T03:15:33.889Z,990.52
2017-03-04T03:16:14.427Z,990.56
2017-03-04T03:16:54.968Z,990.5
2017-03-04T03:17:35.526Z,990.52
2017-03-04T03:18:16.069Z,990.54
2017-03-04T03:18:56.599Z,990.47
2017-03-04T03:19:37.148Z,990.49
2017-03-04T03:20:17.696Z,990.44
2017-03-04T03:20:58.236Z,990.45
2017-03-04T03:21:38.784Z,990.43
2017-03-04T03:22:19.327Z,990.4
2017-03-04T03:22:59.858Z,990.39
2017-03-04T03:23:40.425Z,990.41
2017-03-04T03:24:20.974Z,990.42
2017-03-04T03:25:01.504Z,990.4
2017-03-04T03:25:42.047Z,990.35
2017-03-04T03:26:22.590Z,990.32
2017-03-04T03:27:03.128Z,990.33
2017-03-04T03:27:43.659Z,990.33
2017-03-04T03:28:24.210Z,990.29
2017-03-04T03:29:04.757Z,990.26
2017-03-04T03:29:45.306Z,990.24
2017-03-04T03:30:25.861Z,990.22
2017-03-04T03:31:06.395Z,990.29
2017-03-04T03:31:46.943Z,990.31
2017-03-04T03:32:27.489Z,990.32
2017-03-04T03:33:08.037Z,990.31
2017-03-04T03:33:48.585Z,990.29
2017-03-04T03:34:29.133Z,990.27
2017-03-04T03:35:09.673Z,990.28
2017-03-04T03:35:50.218Z,990.28
2017-03-04T03:36:30.758Z,990.26
2017-03-04T03:37:11.303Z,990.25
2017-03-04T03:37:51.846Z,990.27
2017-03-04T03:38:32.387Z,990.27
2017-03-04T03:39:12.927Z,990.21
2017-03-04T03:39:53.475Z,990.22
2017-03-04T03:40:34.022Z,990.22
2017-03-04T03:41:14.571Z,990.29
2017-03-04T03:41:55.121Z,990.26
2017-03-04T03:42:35.671Z,990.24
2017-03-04T03:43:16.209Z,990.23
2017-03-04T03:43:56.754Z,990.21
2017-03-04T03:44:37.301Z,990.25
2017-03-04T03:45:17.849Z,990.27
2017-03-04T03:45:58.389Z,990.23
2017-03-04T03:46:38.934Z,990.18
2017-03-04T03:47:19.473Z,990.21
2017-03-04T03:48:00.016Z,990.21
2017-03-04T03:48:40.554Z,990.16
2017-03-04T03:49:21.107Z,990.18
2017-03-04T03:50:01.633Z,990.16
2017-03-04T03:50:42.186Z,990.19
2017-03-04T03:51:22.738Z,990.15
2017-03-04T03:52:03.281Z,990.15
2017-03-04T03:52:43.831Z,990.15
2017-03-04T03:53:24.385Z,990.14
2017-03-04T03:54:04.932Z,990.16
2017-03-04T03:54:45.483Z,990.18
2017-03-04T03:55:26.025Z,990.2
2017-03-04T03:56:06.568Z,990.23
2017-03-04T03:56:47.112Z,990.2
2017-03-04T03:57:27.660Z,990.18
2017-03-04T03:58:08.202Z,990.22
2017-03-04T03:58:48.736Z,990.2
2017-03-04T03:59:29.276Z,990.25
2017-03-04T04:00:09.822Z,990.28
2017-03-04T04:00:50.365Z,990.19
2017-03-04T04:01:30.900Z,990.18
2017-03-04T04:02:11.444Z,990.22
2017-03-04T04:02:51.986Z,990.17
2017-03-04T04:03:32.534Z,990.22
2017-03-04T04:04:13.084Z,990.2
2017-03-04T04:04:53.632Z,990.19
2017-03-04T04:05:34.198Z,990.23
2017-03-04T04:06:14.738Z,990.19
2017-03-04T04:06:55.283Z,990.19
2017-03-04T04:07:35.829Z,990.16
2017-03-04T04:08:16.378Z,990.19
2017-03-04T04:08:56.977Z,990.14
2017-03-04T04:09:37.508Z,990.12
2017-03-04T04:10:18.055Z,990.14
2017-03-04T04:10:58.606Z,990.13
2017-03-04T04:11:39.156Z,990.16
2017-03-04T04:12:19.704Z,990.14
2017-03-04T04:13:00.248Z,990.16
2017-03-04T04:13:40.790Z,990.06
2017-03-04T04:14:21.336Z,990.07
2017-03-04T04:15:01.878Z,990.08
2017-03-04T04:15:42.428Z,990.11
2017-03-04T04:16:22.957Z,990.09
2017-03-04T04:17:03.483Z,990.11
2017-03-04T04:17:44.034Z,990.11
2017-03-04T04:18:24.567Z,990.06
2017-03-04T04:19:05.115Z,990.1
2017-03-04T04:19:45.665Z,990.11
2017-03-04T04:20:26.216Z,990.15
2017-03-04T04:21:06.766Z,990.12
2017-03-04T04:21:47.317Z,990.13
2017-03-04T04:22:27.869Z,990.13
2017-03-04T04:23:08.417Z,990.09
2017-03-04T04:23:48.977Z,990.1
2017-03-04T04:24:29.525Z,990.15
2017-03-04T04:25:10.073Z,990.13
2017-03-04T04:25:50.621Z,990.09
2017-03-04T04:26:31.172Z,990.12
2017-03-04T04:27:11.711Z,990.07
2017-03-04T04:27:52.261Z,990.12
2017-03-04T04:28:32.808Z,990.07
2017-03-04T04:29:13.353Z,990.12
2017-03-04T04:29:53.897Z,990.15
2017-03-04T04:30:34.426Z,990.15
2017-03-04T04:31:14.960Z,990.16
2017-03-04T04:31:55.496Z,990.09
2017-03-04T04:32:36.031Z,990.09
2017-03-04T04:33:16.577Z,990.09
2017-03-04T04:33:57.133Z,990.03
2017-03-04T04:34:37.682Z,990.07
2017-03-04T04:35:18.229Z,990.09
2017-03-04T04:35:58.781Z,990.12
2017-03-04T04:36:39.331Z,990.09
2017-03-04T04:37:19.856Z,990.09
2017-03-04T04:38:00.401Z,990.11
2017-03-04T04:38:40.931Z,990.06
2017-03-04T04:39:21.469Z,990.05
2017-03-04T04:40:02.008Z,990.04
2017-03-04T04:40:42.548Z,990.07
2017-03-04T04:41:23.087Z,990.06
2017-03-04T04:42:03.634Z,990
2017-03-04T04:42:44.177Z,990.01
2017-03-04T04:43:24.726Z,990.03
2017-03-04T04:44:05.277Z,989.96
2017-03-04T04:44:45.817Z,989.95
2017-03-04T04:45:26.362Z,989.99
2017-03-04T04:46:06.910Z,990
2017-03-04T04:46:47.452Z,990
2017-03-04T04:47:27.991Z,989.96
2017-03-04T04:48:08.529Z,989.96
2017-03-04T04:48:49.074Z,990.02
2017-03-04T04:49:29.615Z,989.97
2017-03-04T04:50:10.164Z,989.96
2017-03-04T04:50:50.700Z,989.96
2017-03-04T04:51:31.308Z,989.96
2017-03-04T04:52:11.848Z,989.95
2017-03-04T04:52:52.396Z,989.9
2017-03-04T04:53:32.943Z,989.93
2017-03-04T04:54:13.485Z,989.92
2017-03-04T04:54:54.030Z,989.95
2017-03-04T04:55:34.567Z,989.94
2017-03-04T04:56:15.103Z,989.95
2017-03-04T04:56:55.654Z,989.92
2017-03-04T04:57:36.207Z,989.94
2017-03-04T04:58:16.756Z,989.92
2017-03-04T04:58:57.303Z,989.88
2017-03-04T04:59:37.850Z,989.9
2017-03-04T05:00:18.388Z,989.9
2017-03-04T05:00:58.931Z,989.94
2017-03-04T05:01:39.529Z,989.89
2017-03-04T05:02:20.081Z,989.82
2017-03-04T05:03:00.617Z,989.84
2017-03-04T05:03:41.159Z,989.88
2017-03-04T05:04:21.693Z,989.88
2017-03-04T05:05:02.240Z,989.86
2017-03-04T05:05:42.786Z,989.85
2017-03-04T05:06:23.335Z,989.89
2017-03-04T05:07:03.862Z,989.87
2017-03-04T05:07:44.403Z,989.89
2017-03-04T05:08:24.937Z,989.87
2017-03-04T05:09:05.486Z,989.86
2017-03-04T05:09:46.037Z,989.89
2017-03-04T05:10:26.577Z,989.84
2017-03-04T05:11:07.121Z,989.88
2017-03-04T05:11:47.673Z,989.84
2017-03-04T05:12:28.225Z,989.82
2017-03-04T05:13:08.773Z,989.8
2017-03-04T05:13:49.321Z,989.83
2017-03-04T05:14:29.855Z,989.76
2017-03-04T05:15:10.400Z,989.77
2017-03-04T05:15:50.950Z,989.7
2017-03-04T05:16:31.497Z,989.69
2017-03-04T05:17:12.037Z,989.7
2017-03-04T05:17:52.661Z,989.69
2017-03-04T05:18:33.243Z,989.72
2017-03-04T05:19:13.778Z,989.73
2017-03-04T05:19:54.315Z,989.72
2017-03-04T05:20:34.878Z,989.7
2017-03-04T05:21:15.504Z,989.68
2017-03-04T05:21:56.101Z,989.69
2017-03-04T05:22:36.763Z,989.7
2017-03-04T05:23:17.270Z,989.71
2017-03-04T05:23:57.814Z,989.71
2017-03-04T05:24:38.424Z,989.73
2017-03-04T05:25:19.011Z,989.66
2017-03-04T05:25:59.547Z,989.68
2017-03-04T05:26:40.101Z,989.66
2017-03-04T05:27:20.640Z,989.68
2017-03-04T05:28:01.185Z,989.66
2017-03-04T05:28:41.739Z,989.69
2017-03-04T05:29:22.290Z,989.63
2017-03-04T05:30:02.837Z,989.63
2017-03-04T05:30:43.384Z,989.62
2017-03-04T05:31:23.930Z,989.61
2017-03-04T05:32:04.484Z,989.59
2017-03-04T05:32:45.033Z,989.61
2017-03-04T05:33:25.578Z,989.6
2017-03-04T05:34:06.125Z,989.62
2017-03-04T05:34:46.676Z,989.64
2017-03-04T05:35:27.208Z,989.62
2017-03-04T05:36:07.754Z,989.59
2017-03-04T05:36:48.293Z,989.58
2017-03-04T05:37:28.830Z,989.57
2017-03-04T05:38:09.380Z,989.59
2017-03-04T05:38:49.929Z,989.59
2017-03-04T05:39:30.482Z,989.59
2017-03-04T05:40:11.032Z,989.61
2017-03-04T05:40:51.583Z,989.6
2017-03-04T05:41:32.135Z,989.61
2017-03-04T05:42:12.675Z,989.58
2017-03-04T05:42:53.217Z,989.57
2017-03-04T05:43:33.768Z,989.55
2017-03-04T05:44:14.315Z,989.53
2017-03-04T05:44:54.887Z,989.49
2017-03-04T05:45:35.423Z,989.47
2017-03-04T05:46:15.974Z,989.51
2017-03-04T05:46:56.519Z,989.52
2017-03-04T05:47:37.061Z,989.53
2017-03-04T05:48:17.611Z,989.51
2017-03-04T05:48:58.218Z,989.48
2017-03-04T05:49:38.814Z,989.48
2017-03-04T05:50:19.356Z,989.49
2017-03-04T05:50:59.905Z,989.49
2017-03-04T05:51:40.452Z,989.5
2017-03-04T05:52:21.002Z,989.5
2017-03-04T05:53:01.526Z,989.47
2017-03-04T05:53:42.143Z,989.47
2017-03-04T05:54:22.682Z,989.46
2017-03-04T05:55:03.275Z,989.46
2017-03-04T05:55:43.848Z,989.47
2017-03-04T05:56:24.383Z,989.48
2017-03-04T05:57:04.922Z,989.45
2017-03-04T05:57:45.467Z,989.49
2017-03-04T05:58:26.013Z,989.51
2017-03-04T05:59:06.559Z,989.5
2017-03-04T05:59:47.212Z,989.52
2017-03-04T06:00:27.753Z,989.55
2017-03-04T06:01:08.341Z,989.52
2017-03-04T06:01:48.879Z,989.54
2017-03-04T06:02:29.426Z,989.54
2017-03-04T06:03:09.973Z,989.58
2017-03-04T06:03:50.537Z,989.64
2017-03-04T06:04:31.078Z,989.63
2017-03-04T06:05:11.622Z,989.65
2017-03-04T06:05:52.169Z,989.63
2017-03-04T06:06:32.709Z,989.65
2017-03-04T06:07:13.255Z,989.66
2017-03-04T06:07:53.900Z,989.7
2017-03-04T06:08:34.446Z,989.67
2017-03-04T06:09:14.998Z,989.7
2017-03-04T06:09:55.547Z,989.65
2017-03-04T06:10:36.088Z,989.69
2017-03-04T06:11:16.634Z,989.66
2017-03-04T06:11:57.186Z,989.7
2017-03-04T06:12:37.737Z,989.72
2017-03-04T06:13:18.283Z,989.77
2017-03-04T06:13:58.829Z,989.73
2017-03-04T06:14:39.360Z,989.71
2017-03-04T06:15:19.894Z,989.68
2017-03-04T06:16:00.441Z,989.7
2017-03-04T06:16:40.986Z,989.68
2017-03-04T06:17:21.536Z,989.65
2017-03-04T06:18:02.087Z,989.61
2017-03-04T06:18:42.624Z,989.58
2017-03-04T06:19:23.173Z,989.52
2017-03-04T06:20:03.728Z,989.58
2017-03-04T06:20:44.276Z,989.59
2017-03-04T06:21:24.858Z,989.57
2017-03-04T06:22:05.396Z,989.58
2017-03-04T06:22:45.948Z,989.54
2017-03-04T06:23:26.478Z,989.54
2017-03-04T06:24:07.048Z,989.57
2017-03-04T06:24:48.402Z,989.54
2017-03-04T06:25:28.942Z,989.55
2017-03-04T06:26:09.485Z,989.56
2017-03-04T06:26:50.028Z,989.58
2017-03-04T06:27:30.574Z,989.64
2017-03-04T06:28:11.117Z,989.65
2017-03-04T06:28:51.644Z,989.62
2017-03-04T06:29:32.180Z,989.62
2017-03-04T06:30:12.727Z,989.61
2017-03-04T06:30:53.270Z,989.63
2017-03-04T06:31:33.808Z,989.63
2017-03-04T06:32:14.353Z,989.67
2017-03-04T06:32:54.916Z,989.68
2017-03-04T06:33:35.459Z,989.72
2017-03-04T06:34:16.010Z,989.73
2017-03-04T06:34:56.558Z,989.71
2017-03-04T06:35:37.107Z,989.79
2017-03-04T06:36:17.661Z,989.78
2017-03-04T06:36:58.213Z,989.87
2017-03-04T06:37:38.759Z,989.87
2017-03-04T06:38:19.312Z,989.86
2017-03-04T06:38:59.859Z,989.85
2017-03-04T06:39:40.398Z,989.84
2017-03-04T06:40:20.942Z,989.86
2017-03-04T06:41:01.486Z,989.87
2017-03-04T06:41:42.027Z,989.86
2017-03-04T06:42:22.608Z,989.83
2017-03-04T06:43:03.189Z,989.84
2017-03-04T06:43:43.822Z,989.86
2017-03-04T06:44:24.395Z,989.86
2017-03-04T06:45:05.025Z,989.83
2017-03-04T06:45:45.570Z,989.77
2017-03-04T06:46:26.124Z,989.76
2017-03-04T06:47:06.843Z,989.73
2017-03-04T06:47:47.577Z,989.65
2017-03-04T06:48:28.109Z,989.6
2017-03-04T06:49:08.657Z,989.56
2017-03-04T06:49:49.211Z,989.53
2017-03-04T06:50:29.743Z,989.55
2017-03-04T06:51:10.301Z,989.55
2017-03-04T06:51:50.840Z,989.57
2017-03-04T06:52:31.391Z,989.58
2017-03-04T06:53:11.941Z,989.57
2017-03-04T06:53:52.511Z,989.54
2017-03-04T06:54:33.076Z,989.53
2017-03-04T06:55:13.611Z,989.5
2017-03-04T06:55:54.147Z,989.54
2017-03-04T06:56:34.695Z,989.56
2017-03-04T06:57:15.247Z,989.56
2017-03-04T06:57:55.795Z,989.57
2017-03-04T06:58:36.346Z,989.59
2017-03-04T06:59:16.898Z,989.65
2017-03-04T06:59:57.451Z,989.64
2017-03-04T07:00:38.033Z,989.65
2017-03-04T07:01:18.598Z,989.7
2017-03-04T07:01:59.122Z,989.77
2017-03-04T07:02:39.659Z,989.76
2017-03-04T07:03:20.204Z,989.75
2017-03-04T07:04:00.799Z,989.79
2017-03-04T07:04:41.343Z,989.77
2017-03-04T07:05:21.898Z,989.76
2017-03-04T07:06:02.444Z,989.81
2017-03-04T07:06:42.989Z,989.76
2017-03-04T07:07:23.529Z,989.76
2017-03-04T07:08:04.070Z,989.73
2017-03-04T07:08:44.618Z,989.7
2017-03-04T07:09:25.235Z,989.71
2017-03-04T07:10:05.782Z,989.72
2017-03-04T07:10:46.332Z,989.74
2017-03-04T07:11:26.892Z,989.75
2017-03-04T07:12:07.436Z,989.73
2017-03-04T07:12:47.976Z,989.69
2017-03-04T07:13:28.510Z,989.7
2017-03-04T07:14:09.050Z,989.66
2017-03-04T07:14:49.649Z,989.68
2017-03-04T07:15:30.202Z,989.64
2017-03-04T07:16:10.747Z,989.66
2017-03-04T07:16:51.268Z,989.68
2017-03-04T07:17:31.807Z,989.71
2017-03-04T07:18:12.354Z,989.74
2017-03-04T07:18:52.902Z,989.76
2017-03-04T07:19:33.446Z,989.73
2017-03-04T07:20:13.982Z,989.7
2017-03-04T07:20:54.569Z,989.65
2017-03-04T07:21:35.098Z,989.6
2017-03-04T07:22:15.647Z,989.58
2017-03-04T07:22:56.184Z,989.54
2017-03-04T07:23:36.728Z,989.51
2017-03-04T07:24:17.283Z,989.49
2017-03-04T07:24:57.851Z,989.46
2017-03-04T07:25:38.486Z,989.45
2017-03-04T07:26:19.053Z,989.52
2017-03-04T07:26:59.606Z,989.56
2017-03-04T07:27:40.144Z,989.57
2017-03-04T07:28:20.709Z,989.56
2017-03-04T07:29:01.253Z,989.67
2017-03-04T07:29:41.800Z,989.69
2017-03-04T07:30:22.346Z,989.66
2017-03-04T07:31:02.878Z,989.6
2017-03-04T07:31:43.424Z,989.64
2017-03-04T07:32:23.994Z,989.59
2017-03-04T07:33:04.568Z,989.63
2017-03-04T07:33:45.144Z,989.63
2017-03-04T07:34:25.717Z,989.68
2017-03-04T07:35:06.302Z,989.7
2017-03-04T07:35:46.862Z,989.67
2017-03-04T07:36:27.424Z,989.7
2017-03-04T07:37:07.995Z,989.68
2017-03-04T07:37:48.555Z,989.68
2017-03-04T07:38:29.087Z,989.66
2017-03-04T07:39:09.701Z,989.68
2017-03-04T07:39:50.268Z,989.66
2017-03-04T07:40:30.819Z,989.62
2017-03-04T07:41:11.361Z,989.63
2017-03-04T07:41:51.911Z,989.61
2017-03-04T07:42:32.456Z,989.62
2017-03-04T07:43:12.999Z,989.59
2017-03-04T07:43:53.547Z,989.57
2017-03-04T07:44:34.113Z,989.58
2017-03-04T07:45:14.687Z,989.57
2017-03-04T07:45:55.244Z,989.57
2017-03-04T07:46:35.835Z,989.54
2017-03-04T07:47:16.419Z,989.53
2017-03-04T07:47:56.969Z,989.5
2017-03-04T07:48:37.530Z,989.49
2017-03-04T07:49:18.147Z,989.52
2017-03-04T07:49:58.632Z,989.52
2017-03-04T07:50:39.174Z,989.54
2017-03-04T07:51:19.757Z,989.52
2017-03-04T07:52:00.325Z,989.47
2017-03-04T07:52:40.899Z,989.4
2017-03-04T07:53:21.464Z,989.42
2017-03-04T07:54:02.019Z,989.39
2017-03-04T07:54:42.566Z,989.41
2017-03-04T07:55:23.136Z,989.43
2017-03-04T07:56:03.694Z,989.46
2017-03-04T07:56:44.247Z,989.46
2017-03-04T07:57:24.792Z,989.45
2017-03-04T07:58:05.376Z,989.46
2017-03-04T07:58:45.932Z,989.47
2017-03-04T07:59:26.467Z,989.52
2017-03-04T08:00:07.053Z,989.44
2017-03-04T08:00:47.610Z,989.49
2017-03-04T08:01:28.163Z,989.5
2017-03-04T08:02:08.722Z,989.5
2017-03-04T08:02:49.287Z,989.49
2017-03-04T08:03:29.827Z,989.49
2017-03-04T08:04:10.403Z,989.51
2017-03-04T08:04:50.972Z,989.54
2017-03-04T08:05:31.550Z,989.48
2017-03-04T08:06:12.082Z,989.49
2017-03-04T08:06:52.705Z,989.5
2017-03-04T08:07:33.274Z,989.5
2017-03-04T08:08:13.815Z,989.5
2017-03-04T08:08:54.352Z,989.47
2017-03-04T08:09:34.927Z,989.39
2017-03-04T08:10:15.486Z,989.3
2017-03-04T08:10:56.031Z,989.27
2017-03-04T08:11:36.669Z,989.27
2017-03-04T08:12:17.260Z,989.33
2017-03-04T08:12:57.776Z,989.39
2017-03-04T08:13:38.350Z,989.39
2017-03-04T08:14:18.911Z,989.38
2017-03-04T08:14:59.466Z,989.4
2017-03-04T08:15:40.066Z,989.4
2017-03-04T08:16:20.635Z,989.41
2017-03-04T08:17:01.173Z,989.4
2017-03-04T08:17:41.723Z,989.39
2017-03-04T08:18:22.278Z,989.37
2017-03-04T08:19:02.827Z,989.37
2017-03-04T08:19:43.377Z,989.39
2017-03-04T08:20:23.965Z,989.37
2017-03-04T08:21:04.510Z,989.39
2017-03-04T08:21:45.129Z,989.34
2017-03-04T08:22:25.680Z,989.36
2017-03-04T08:23:06.237Z,989.36
2017-03-04T08:23:46.821Z,989.33
2017-03-04T08:24:27.429Z,989.29
2017-03-04T08:25:07.987Z,989.32
2017-03-04T08:25:48.548Z,989.27
2017-03-04T08:26:29.089Z,989.31
2017-03-04T08:27:09.637Z,989.29
2017-03-04T08:27:50.183Z,989.23
2017-03-04T08:28:30.731Z,989.22
2017-03-04T08:29:11.269Z,989.18
2017-03-04T08:29:51.876Z,989.15
2017-03-04T08:30:32.422Z,989.12
2017-03-04T08:31:12.976Z,989.1
2017-03-04T08:31:53.520Z,989.07
2017-03-04T08:32:34.073Z,989.07
2017-03-04T08:33:14.692Z,989.05
2017-03-04T08:33:55.252Z,989.02
2017-03-04T08:34:35.803Z,989.04
2017-03-04T08:35:16.350Z,989.02
2017-03-04T08:35:56.906Z,989
2017-03-04T08:36:37.456Z,988.98
2017-03-04T08:37:17.996Z,988.98
2017-03-04T08:37:58.537Z,988.93
2017-03-04T08:38:39.083Z,988.91
2017-03-04T08:39:19.637Z,988.9
2017-03-04T08:40:00.189Z,988.94
2017-03-04T08:40:40.737Z,988.88
2017-03-04T08:41:21.289Z,988.88
2017-03-04T08:42:01.840Z,988.89
2017-03-04T08:42:42.389Z,988.9
2017-03-04T08:43:22.939Z,988.86
2017-03-04T08:44:03.481Z,988.91
2017-03-04T08:44:44.031Z,988.88
2017-03-04T08:45:24.583Z,988.85
2017-03-04T08:46:05.134Z,988.86
2017-03-04T08:46:45.729Z,988.83
2017-03-04T08:47:26.663Z,988.79
2017-03-04T08:48:07.146Z,988.79
2017-03-04T08:48:47.681Z,988.81
2017-03-04T08:49:28.236Z,988.78
2017-03-04T08:50:08.783Z,988.79
2017-03-04T08:50:49.333Z,988.86
2017-03-04T08:51:29.883Z,988.86
2017-03-04T08:52:10.435Z,988.79
2017-03-04T08:52:50.984Z,988.79
2017-03-04T08:53:31.539Z,988.75
2017-03-04T08:54:12.091Z,988.73
2017-03-04T08:54:52.640Z,988.77
2017-03-04T08:55:33.185Z,988.74
2017-03-04T08:56:13.725Z,988.69
2017-03-04T08:56:54.277Z,988.71
2017-03-04T08:57:34.826Z,988.63
2017-03-04T08:58:15.374Z,988.65
2017-03-04T08:58:55.921Z,988.73
2017-03-04T08:59:36.473Z,988.67
2017-03-04T09:00:17.022Z,988.67
2017-03-04T09:00:57.568Z,988.7
2017-03-04T09:01:38.117Z,988.69
2017-03-04T09:02:18.692Z,988.68
2017-03-04T09:02:59.235Z,988.67
2017-03-04T09:03:39.778Z,988.67
2017-03-04T09:04:20.329Z,988.68
2017-03-04T09:05:00.912Z,988.7
2017-03-04T09:05:41.454Z,988.7
2017-03-04T09:06:22.006Z,988.69
2017-03-04T09:07:02.574Z,988.7
2017-03-04T09:07:43.209Z,988.62
2017-03-04T09:08:23.762Z,988.65
2017-03-04T09:09:04.353Z,988.64
2017-03-04T09:09:44.939Z,988.57
2017-03-04T09:10:25.547Z,988.52
2017-03-04T09:11:06.136Z,988.51
2017-03-04T09:11:46.735Z,988.52
2017-03-04T09:12:27.274Z,988.5
2017-03-04T09:13:07.839Z,988.45
2017-03-04T09:13:48.387Z,988.46